DRZA

Mano Dayak International Airport

Agadez, Niger
METAR DRZA 190300Z 18004KT CAVOK 29/21 Q1012
Observed Flight Rules
Sep-19 @ 03:00 UTC (an hour ago) Visual Flight Rules
Wind Visibility Clouds
180° at 4 knots 10,000+ meters
  • Clear skies
Temperatures Readings
Current 29°C / 84°F
Dewpoint 21°C / 70°F
Humidity 62%
Altimeter 29.88" Hg
Pressure 1012 hPa
Elevation 502
METAR DRZA 190300Z 18004KT CAVOK 29/21 Q1012
Observed Flight Rules
Sep-19 @ 03:00 UTC
(an hour ago)
VFR
Wind Visibility
180° at 4 knots 10,000+ meters
Clouds
  • Clear skies
Temperature Dewpoint
29°C / 84°F 21°C / 70°F
Humidity Altimeter Pressure
62% 29.88" Hg 1012 hPa